sensor_id;sensor_type;location;lat;lon;timestamp;P1;durP1;ratioP1;P2;durP2;ratioP2
23714;SDS011;12036;50.858;4.472;2024-02-16T00:00:09;3.40;;;1.85;;
23714;SDS011;12036;50.858;4.472;2024-02-16T00:02:39;4.78;;;1.60;;
23714;SDS011;12036;50.858;4.472;2024-02-16T00:05:06;3.83;;;1.60;;
23714;SDS011;12036;50.858;4.472;2024-02-16T00:07:33;4.10;;;1.70;;
23714;SDS011;12036;50.858;4.472;2024-02-16T00:09:59;2.92;;;1.50;;
23714;SDS011;12036;50.858;4.472;2024-02-16T00:12:25;5.25;;;1.77;;
23714;SDS011;12036;50.858;4.472;2024-02-16T00:14:50;3.35;;;1.85;;
23714;SDS011;12036;50.858;4.472;2024-02-16T00:17:16;3.90;;;1.65;;
23714;SDS011;12036;50.858;4.472;2024-02-16T00:19:42;3.13;;;1.88;;
23714;SDS011;12036;50.858;4.472;2024-02-16T00:22:08;3.28;;;1.58;;
23714;SDS011;12036;50.858;4.472;2024-02-16T00:24:34;4.38;;;1.80;;
23714;SDS011;12036;50.858;4.472;2024-02-16T00:27:01;3.80;;;1.75;;
23714;SDS011;12036;50.858;4.472;2024-02-16T00:29:28;2.55;;;1.55;;
23714;SDS011;12036;50.858;4.472;2024-02-16T00:31:54;9.32;;;1.85;;
23714;SDS011;12036;50.858;4.472;2024-02-16T00:34:20;3.67;;;1.70;;
23714;SDS011;12036;50.858;4.472;2024-02-16T00:36:46;4.25;;;1.80;;
23714;SDS011;12036;50.858;4.472;2024-02-16T00:39:11;5.03;;;1.73;;
23714;SDS011;12036;50.858;4.472;2024-02-16T00:41:37;3.38;;;1.77;;
23714;SDS011;12036;50.858;4.472;2024-02-16T00:44:03;3.63;;;1.77;;
23714;SDS011;12036;50.858;4.472;2024-02-16T00:46:28;3.25;;;1.60;;
23714;SDS011;12036;50.858;4.472;2024-02-16T00:48:54;3.83;;;2.05;;
23714;SDS011;12036;50.858;4.472;2024-02-16T00:51:20;2.53;;;1.60;;
23714;SDS011;12036;50.858;4.472;2024-02-16T00:53:45;4.70;;;1.83;;
23714;SDS011;12036;50.858;4.472;2024-02-16T00:56:11;2.20;;;1.73;;
23714;SDS011;12036;50.858;4.472;2024-02-16T00:58:40;4.38;;;1.60;;
23714;SDS011;12036;50.858;4.472;2024-02-16T01:01:07;5.35;;;1.60;;
23714;SDS011;12036;50.858;4.472;2024-02-16T01:03:36;2.40;;;1.80;;
23714;SDS011;12036;50.858;4.472;2024-02-16T01:06:05;3.67;;;1.65;;
23714;SDS011;12036;50.858;4.472;2024-02-16T01:08:31;4.00;;;1.90;;
23714;SDS011;12036;50.858;4.472;2024-02-16T01:10:57;3.08;;;1.52;;
23714;SDS011;12036;50.858;4.472;2024-02-16T01:13:23;3.08;;;1.73;;
23714;SDS011;12036;50.858;4.472;2024-02-16T01:15:49;5.75;;;2.22;;
23714;SDS011;12036;50.858;4.472;2024-02-16T01:18:15;2.38;;;1.65;;
23714;SDS011;12036;50.858;4.472;2024-02-16T01:20:40;4.82;;;2.17;;
23714;SDS011;12036;50.858;4.472;2024-02-16T01:23:06;6.22;;;1.90;;
23714;SDS011;12036;50.858;4.472;2024-02-16T01:25:32;2.38;;;1.75;;
23714;SDS011;12036;50.858;4.472;2024-02-16T01:27:57;6.53;;;1.92;;
23714;SDS011;12036;50.858;4.472;2024-02-16T01:30:24;5.57;;;1.83;;
23714;SDS011;12036;50.858;4.472;2024-02-16T01:32:49;4.43;;;1.75;;
23714;SDS011;12036;50.858;4.472;2024-02-16T01:35:15;2.85;;;1.52;;
23714;SDS011;12036;50.858;4.472;2024-02-16T01:37:41;2.78;;;1.90;;
23714;SDS011;12036;50.858;4.472;2024-02-16T01:40:08;3.03;;;1.77;;
23714;SDS011;12036;50.858;4.472;2024-02-16T01:42:39;3.38;;;1.92;;
23714;SDS011;12036;50.858;4.472;2024-02-16T01:45:06;4.88;;;1.92;;
23714;SDS011;12036;50.858;4.472;2024-02-16T01:47:33;2.88;;;1.67;;
23714;SDS011;12036;50.858;4.472;2024-02-16T01:49:59;3.70;;;2.00;;
23714;SDS011;12036;50.858;4.472;2024-02-16T01:52:25;6.18;;;1.92;;
23714;SDS011;12036;50.858;4.472;2024-02-16T01:54:51;2.40;;;1.90;;
23714;SDS011;12036;50.858;4.472;2024-02-16T01:57:17;4.28;;;1.95;;
23714;SDS011;12036;50.858;4.472;2024-02-16T01:59:43;3.63;;;1.75;;
23714;SDS011;12036;50.858;4.472;2024-02-16T02:02:08;3.53;;;1.80;;
23714;SDS011;12036;50.858;4.472;2024-02-16T02:04:34;4.65;;;2.00;;
23714;SDS011;12036;50.858;4.472;2024-02-16T02:07:10;3.25;;;2.20;;
23714;SDS011;12036;50.858;4.472;2024-02-16T02:09:39;5.13;;;1.98;;
23714;SDS011;12036;50.858;4.472;2024-02-16T02:12:05;5.32;;;2.00;;
23714;SDS011;12036;50.858;4.472;2024-02-16T02:14:30;3.17;;;1.80;;
23714;SDS011;12036;50.858;4.472;2024-02-16T02:16:56;2.50;;;1.65;;
23714;SDS011;12036;50.858;4.472;2024-02-16T02:19:22;6.22;;;2.22;;
23714;SDS011;12036;50.858;4.472;2024-02-16T02:21:47;3.30;;;1.85;;
23714;SDS011;12036;50.858;4.472;2024-02-16T02:24:13;5.35;;;1.80;;
23714;SDS011;12036;50.858;4.472;2024-02-16T02:26:39;3.92;;;1.70;;
23714;SDS011;12036;50.858;4.472;2024-02-16T02:29:04;2.03;;;1.65;;
23714;SDS011;12036;50.858;4.472;2024-02-16T02:31:30;4.93;;;1.90;;
23714;SDS011;12036;50.858;4.472;2024-02-16T02:33:56;5.15;;;1.77;;
23714;SDS011;12036;50.858;4.472;2024-02-16T02:36:21;6.95;;;2.28;;
23714;SDS011;12036;50.858;4.472;2024-02-16T02:38:47;4.05;;;2.00;;
23714;SDS011;12036;50.858;4.472;2024-02-16T02:41:13;5.40;;;2.20;;
23714;SDS011;12036;50.858;4.472;2024-02-16T02:43:41;5.05;;;2.10;;
23714;SDS011;12036;50.858;4.472;2024-02-16T02:46:07;4.05;;;2.13;;
23714;SDS011;12036;50.858;4.472;2024-02-16T02:48:32;10.30;;;2.20;;
23714;SDS011;12036;50.858;4.472;2024-02-16T02:50:58;4.28;;;2.00;;
23714;SDS011;12036;50.858;4.472;2024-02-16T02:53:27;3.22;;;2.05;;
23714;SDS011;12036;50.858;4.472;2024-02-16T02:55:53;4.15;;;2.20;;
23714;SDS011;12036;50.858;4.472;2024-02-16T02:58:19;4.25;;;1.95;;
23714;SDS011;12036;50.858;4.472;2024-02-16T03:00:44;4.75;;;2.22;;
23714;SDS011;12036;50.858;4.472;2024-02-16T03:03:10;3.63;;;2.00;;
23714;SDS011;12036;50.858;4.472;2024-02-16T03:05:36;3.13;;;2.00;;
23714;SDS011;12036;50.858;4.472;2024-02-16T03:08:02;6.85;;;2.30;;
23714;SDS011;12036;50.858;4.472;2024-02-16T03:10:28;7.43;;;2.08;;
23714;SDS011;12036;50.858;4.472;2024-02-16T03:12:59;4.72;;;1.70;;
23714;SDS011;12036;50.858;4.472;2024-02-16T03:15:25;4.43;;;2.25;;
23714;SDS011;12036;50.858;4.472;2024-02-16T03:17:51;3.10;;;2.20;;
23714;SDS011;12036;50.858;4.472;2024-02-16T03:20:17;5.05;;;2.05;;
23714;SDS011;12036;50.858;4.472;2024-02-16T03:22:42;4.13;;;1.98;;
23714;SDS011;12036;50.858;4.472;2024-02-16T03:25:08;3.97;;;2.20;;
23714;SDS011;12036;50.858;4.472;2024-02-16T03:27:34;3.35;;;2.45;;
23714;SDS011;12036;50.858;4.472;2024-02-16T03:30:00;4.35;;;2.10;;
23714;SDS011;12036;50.858;4.472;2024-02-16T03:32:27;3.65;;;1.80;;
23714;SDS011;12036;50.858;4.472;2024-02-16T03:34:52;4.95;;;2.30;;
23714;SDS011;12036;50.858;4.472;2024-02-16T03:37:18;2.88;;;1.80;;
23714;SDS011;12036;50.858;4.472;2024-02-16T03:39:44;5.95;;;2.35;;
23714;SDS011;12036;50.858;4.472;2024-02-16T03:42:09;3.60;;;1.98;;
23714;SDS011;12036;50.858;4.472;2024-02-16T03:44:35;3.72;;;2.17;;
23714;SDS011;12036;50.858;4.472;2024-02-16T03:47:00;8.32;;;2.08;;
23714;SDS011;12036;50.858;4.472;2024-02-16T03:49:26;3.50;;;2.00;;
23714;SDS011;12036;50.858;4.472;2024-02-16T03:51:53;5.05;;;2.13;;
23714;SDS011;12036;50.858;4.472;2024-02-16T03:54:18;3.63;;;1.90;;
23714;SDS011;12036;50.858;4.472;2024-02-16T03:56:44;4.05;;;2.20;;
23714;SDS011;12036;50.858;4.472;2024-02-16T03:59:10;5.22;;;2.55;;
23714;SDS011;12036;50.858;4.472;2024-02-16T04:01:36;3.42;;;2.33;;
23714;SDS011;12036;50.858;4.472;2024-02-16T04:04:01;5.93;;;1.92;;
23714;SDS011;12036;50.858;4.472;2024-02-16T04:06:28;3.63;;;1.98;;
23714;SDS011;12036;50.858;4.472;2024-02-16T04:08:54;3.38;;;2.20;;
23714;SDS011;12036;50.858;4.472;2024-02-16T04:11:21;4.45;;;1.98;;
23714;SDS011;12036;50.858;4.472;2024-02-16T04:13:46;7.85;;;2.30;;
23714;SDS011;12036;50.858;4.472;2024-02-16T04:16:13;4.80;;;2.10;;
23714;SDS011;12036;50.858;4.472;2024-02-16T04:18:39;3.47;;;2.10;;
23714;SDS011;12036;50.858;4.472;2024-02-16T04:21:04;5.20;;;2.63;;
23714;SDS011;12036;50.858;4.472;2024-02-16T04:23:30;9.82;;;2.05;;
23714;SDS011;12036;50.858;4.472;2024-02-16T04:25:56;3.30;;;2.00;;
23714;SDS011;12036;50.858;4.472;2024-02-16T04:28:21;4.68;;;2.35;;
23714;SDS011;12036;50.858;4.472;2024-02-16T04:30:47;4.88;;;2.15;;
23714;SDS011;12036;50.858;4.472;2024-02-16T04:33:12;7.40;;;2.42;;
23714;SDS011;12036;50.858;4.472;2024-02-16T04:35:38;4.55;;;1.85;;
23714;SDS011;12036;50.858;4.472;2024-02-16T04:38:04;5.53;;;2.20;;
23714;SDS011;12036;50.858;4.472;2024-02-16T04:40:33;3.17;;;1.90;;
23714;SDS011;12036;50.858;4.472;2024-02-16T04:43:01;2.63;;;1.77;;
23714;SDS011;12036;50.858;4.472;2024-02-16T04:45:27;4.72;;;2.33;;
23714;SDS011;12036;50.858;4.472;2024-02-16T04:47:55;3.05;;;2.08;;
23714;SDS011;12036;50.858;4.472;2024-02-16T04:50:21;5.82;;;2.13;;
23714;SDS011;12036;50.858;4.472;2024-02-16T04:52:46;6.15;;;2.22;;
23714;SDS011;12036;50.858;4.472;2024-02-16T04:55:12;4.47;;;2.15;;
23714;SDS011;12036;50.858;4.472;2024-02-16T04:57:38;4.63;;;2.03;;
23714;SDS011;12036;50.858;4.472;2024-02-16T05:00:03;6.40;;;2.05;;
23714;SDS011;12036;50.858;4.472;2024-02-16T05:02:30;3.72;;;2.10;;
23714;SDS011;12036;50.858;4.472;2024-02-16T05:04:55;3.28;;;1.90;;
23714;SDS011;12036;50.858;4.472;2024-02-16T05:07:21;4.40;;;2.00;;
23714;SDS011;12036;50.858;4.472;2024-02-16T05:09:47;6.28;;;2.38;;
23714;SDS011;12036;50.858;4.472;2024-02-16T05:12:12;4.57;;;1.85;;
23714;SDS011;12036;50.858;4.472;2024-02-16T05:14:38;3.35;;;1.80;;
23714;SDS011;12036;50.858;4.472;2024-02-16T05:17:03;5.45;;;2.10;;
23714;SDS011;12036;50.858;4.472;2024-02-16T05:19:32;3.30;;;2.53;;
23714;SDS011;12036;50.858;4.472;2024-02-16T05:21:59;3.83;;;2.10;;
23714;SDS011;12036;50.858;4.472;2024-02-16T05:24:25;2.45;;;1.80;;
23714;SDS011;12036;50.858;4.472;2024-02-16T05:26:50;3.80;;;2.05;;
23714;SDS011;12036;50.858;4.472;2024-02-16T05:29:16;4.95;;;2.17;;
23714;SDS011;12036;50.858;4.472;2024-02-16T05:31:42;5.03;;;2.22;;
23714;SDS011;12036;50.858;4.472;2024-02-16T05:34:08;3.70;;;2.17;;
23714;SDS011;12036;50.858;4.472;2024-02-16T05:36:33;3.78;;;2.08;;
23714;SDS011;12036;50.858;4.472;2024-02-16T05:39:01;4.18;;;2.50;;
23714;SDS011;12036;50.858;4.472;2024-02-16T05:41:35;5.55;;;2.30;;
23714;SDS011;12036;50.858;4.472;2024-02-16T05:44:03;3.03;;;2.05;;
23714;SDS011;12036;50.858;4.472;2024-02-16T05:46:29;3.92;;;2.20;;
23714;SDS011;12036;50.858;4.472;2024-02-16T05:48:55;6.57;;;2.10;;
23714;SDS011;12036;50.858;4.472;2024-02-16T05:51:20;4.57;;;2.28;;
23714;SDS011;12036;50.858;4.472;2024-02-16T05:53:46;5.43;;;2.22;;
23714;SDS011;12036;50.858;4.472;2024-02-16T05:56:12;3.35;;;1.77;;
23714;SDS011;12036;50.858;4.472;2024-02-16T05:58:37;5.90;;;2.60;;
23714;SDS011;12036;50.858;4.472;2024-02-16T06:01:03;4.00;;;1.95;;
23714;SDS011;12036;50.858;4.472;2024-02-16T06:03:29;5.47;;;2.50;;
23714;SDS011;12036;50.858;4.472;2024-02-16T06:05:54;6.78;;;2.00;;
23714;SDS011;12036;50.858;4.472;2024-02-16T06:08:20;5.30;;;2.60;;
23714;SDS011;12036;50.858;4.472;2024-02-16T06:10:46;4.20;;;2.00;;
23714;SDS011;12036;50.858;4.472;2024-02-16T06:13:20;5.80;;;2.28;;
23714;SDS011;12036;50.858;4.472;2024-02-16T06:15:46;7.90;;;2.20;;
23714;SDS011;12036;50.858;4.472;2024-02-16T06:18:12;4.75;;;2.00;;
23714;SDS011;12036;50.858;4.472;2024-02-16T06:20:37;3.20;;;2.13;;
23714;SDS011;12036;50.858;4.472;2024-02-16T06:23:03;5.80;;;2.45;;
23714;SDS011;12036;50.858;4.472;2024-02-16T06:25:29;7.15;;;2.60;;
23714;SDS011;12036;50.858;4.472;2024-02-16T06:27:54;5.53;;;2.20;;
23714;SDS011;12036;50.858;4.472;2024-02-16T06:30:20;4.75;;;2.30;;
23714;SDS011;12036;50.858;4.472;2024-02-16T06:32:46;8.00;;;2.70;;
23714;SDS011;12036;50.858;4.472;2024-02-16T06:35:12;7.47;;;2.10;;
23714;SDS011;12036;50.858;4.472;2024-02-16T06:37:38;5.40;;;2.50;;
23714;SDS011;12036;50.858;4.472;2024-02-16T06:40:04;5.35;;;2.45;;
23714;SDS011;12036;50.858;4.472;2024-02-16T06:42:31;6.32;;;2.33;;
23714;SDS011;12036;50.858;4.472;2024-02-16T06:44:58;6.10;;;2.70;;
23714;SDS011;12036;50.858;4.472;2024-02-16T06:47:24;9.05;;;2.53;;
23714;SDS011;12036;50.858;4.472;2024-02-16T06:49:50;7.13;;;3.47;;
23714;SDS011;12036;50.858;4.472;2024-02-16T06:52:16;4.95;;;2.65;;
23714;SDS011;12036;50.858;4.472;2024-02-16T06:54:42;5.38;;;2.70;;
23714;SDS011;12036;50.858;4.472;2024-02-16T06:57:07;6.57;;;2.38;;
23714;SDS011;12036;50.858;4.472;2024-02-16T06:59:33;4.85;;;2.72;;
23714;SDS011;12036;50.858;4.472;2024-02-16T07:01:59;7.22;;;2.80;;
23714;SDS011;12036;50.858;4.472;2024-02-16T07:04:24;6.88;;;2.63;;
23714;SDS011;12036;50.858;4.472;2024-02-16T07:06:50;6.82;;;2.67;;
23714;SDS011;12036;50.858;4.472;2024-02-16T07:09:16;7.90;;;3.00;;
23714;SDS011;12036;50.858;4.472;2024-02-16T07:11:41;4.57;;;2.30;;
23714;SDS011;12036;50.858;4.472;2024-02-16T07:14:08;5.72;;;2.90;;
23714;SDS011;12036;50.858;4.472;2024-02-16T07:16:34;6.03;;;2.78;;
23714;SDS011;12036;50.858;4.472;2024-02-16T07:19:00;4.15;;;2.65;;
23714;SDS011;12036;50.858;4.472;2024-02-16T07:21:25;7.40;;;2.80;;
23714;SDS011;12036;50.858;4.472;2024-02-16T07:23:52;11.93;;;3.53;;
23714;SDS011;12036;50.858;4.472;2024-02-16T07:26:18;9.73;;;3.60;;
23714;SDS011;12036;50.858;4.472;2024-02-16T07:28:44;9.45;;;3.63;;
23714;SDS011;12036;50.858;4.472;2024-02-16T07:31:09;7.53;;;3.05;;
23714;SDS011;12036;50.858;4.472;2024-02-16T07:33:36;7.07;;;2.70;;
23714;SDS011;12036;50.858;4.472;2024-02-16T07:36:01;4.88;;;2.47;;
23714;SDS011;12036;50.858;4.472;2024-02-16T07:38:27;7.72;;;3.00;;
23714;SDS011;12036;50.858;4.472;2024-02-16T07:40:53;8.07;;;3.03;;
23714;SDS011;12036;50.858;4.472;2024-02-16T07:43:20;7.90;;;3.05;;
23714;SDS011;12036;50.858;4.472;2024-02-16T07:45:49;8.35;;;3.30;;
23714;SDS011;12036;50.858;4.472;2024-02-16T07:48:15;7.47;;;3.00;;
23714;SDS011;12036;50.858;4.472;2024-02-16T07:50:40;7.28;;;3.20;;
23714;SDS011;12036;50.858;4.472;2024-02-16T07:53:06;6.40;;;3.15;;
23714;SDS011;12036;50.858;4.472;2024-02-16T07:55:34;7.82;;;3.17;;
23714;SDS011;12036;50.858;4.472;2024-02-16T07:58:00;9.52;;;3.63;;
23714;SDS011;12036;50.858;4.472;2024-02-16T08:00:26;6.00;;;3.03;;
23714;SDS011;12036;50.858;4.472;2024-02-16T08:02:52;6.80;;;3.15;;
23714;SDS011;12036;50.858;4.472;2024-02-16T08:05:18;3.90;;;2.67;;
23714;SDS011;12036;50.858;4.472;2024-02-16T08:07:44;7.05;;;3.53;;
23714;SDS011;12036;50.858;4.472;2024-02-16T08:10:12;9.57;;;3.42;;
23714;SDS011;12036;50.858;4.472;2024-02-16T08:12:38;7.40;;;3.08;;
23714;SDS011;12036;50.858;4.472;2024-02-16T08:15:04;10.45;;;3.28;;
23714;SDS011;12036;50.858;4.472;2024-02-16T08:17:32;4.63;;;2.70;;
23714;SDS011;12036;50.858;4.472;2024-02-16T08:19:59;4.28;;;2.67;;
23714;SDS011;12036;50.858;4.472;2024-02-16T08:22:25;6.65;;;2.97;;
23714;SDS011;12036;50.858;4.472;2024-02-16T08:24:50;11.30;;;3.30;;
23714;SDS011;12036;50.858;4.472;2024-02-16T08:27:17;8.73;;;3.42;;
23714;SDS011;12036;50.858;4.472;2024-02-16T08:29:43;6.93;;;2.92;;
23714;SDS011;12036;50.858;4.472;2024-02-16T08:32:09;5.78;;;3.17;;
23714;SDS011;12036;50.858;4.472;2024-02-16T08:34:35;7.90;;;3.25;;
23714;SDS011;12036;50.858;4.472;2024-02-16T08:37:02;10.00;;;3.33;;
23714;SDS011;12036;50.858;4.472;2024-02-16T08:39:29;8.48;;;3.35;;
23714;SDS011;12036;50.858;4.472;2024-02-16T08:41:55;8.68;;;3.65;;
23714;SDS011;12036;50.858;4.472;2024-02-16T08:44:21;7.78;;;3.10;;
23714;SDS011;12036;50.858;4.472;2024-02-16T08:46:47;7.70;;;3.70;;
23714;SDS011;12036;50.858;4.472;2024-02-16T08:49:14;12.27;;;3.65;;
23714;SDS011;12036;50.858;4.472;2024-02-16T08:51:41;9.30;;;3.63;;
23714;SDS011;12036;50.858;4.472;2024-02-16T08:54:07;7.75;;;3.75;;
23714;SDS011;12036;50.858;4.472;2024-02-16T08:56:32;9.82;;;4.10;;
23714;SDS011;12036;50.858;4.472;2024-02-16T08:59:00;6.97;;;4.22;;
23714;SDS011;12036;50.858;4.472;2024-02-16T09:01:36;10.02;;;4.57;;
23714;SDS011;12036;50.858;4.472;2024-02-16T09:04:04;9.80;;;3.95;;
23714;SDS011;12036;50.858;4.472;2024-02-16T09:06:30;9.82;;;4.72;;
23714;SDS011;12036;50.858;4.472;2024-02-16T09:08:56;11.75;;;4.85;;
23714;SDS011;12036;50.858;4.472;2024-02-16T09:11:22;13.90;;;5.07;;
23714;SDS011;12036;50.858;4.472;2024-02-16T09:13:48;13.27;;;4.85;;
23714;SDS011;12036;50.858;4.472;2024-02-16T09:16:15;10.05;;;3.88;;
23714;SDS011;12036;50.858;4.472;2024-02-16T09:18:40;9.65;;;4.47;;
23714;SDS011;12036;50.858;4.472;2024-02-16T09:21:06;14.02;;;4.85;;
23714;SDS011;12036;50.858;4.472;2024-02-16T09:23:33;9.65;;;4.63;;
23714;SDS011;12036;50.858;4.472;2024-02-16T09:26:00;9.02;;;4.63;;
23714;SDS011;12036;50.858;4.472;2024-02-16T09:28:26;11.00;;;4.50;;
23714;SDS011;12036;50.858;4.472;2024-02-16T09:30:53;8.43;;;4.15;;
23714;SDS011;12036;50.858;4.472;2024-02-16T09:33:20;14.15;;;4.95;;
23714;SDS011;12036;50.858;4.472;2024-02-16T09:35:47;12.05;;;4.70;;
23714;SDS011;12036;50.858;4.472;2024-02-16T09:38:13;11.88;;;5.05;;
23714;SDS011;12036;50.858;4.472;2024-02-16T09:40:38;10.48;;;4.60;;
23714;SDS011;12036;50.858;4.472;2024-02-16T09:43:04;11.15;;;4.63;;
23714;SDS011;12036;50.858;4.472;2024-02-16T09:45:30;13.38;;;4.90;;
23714;SDS011;12036;50.858;4.472;2024-02-16T09:47:57;9.38;;;4.75;;
23714;SDS011;12036;50.858;4.472;2024-02-16T09:50:24;10.73;;;4.90;;
23714;SDS011;12036;50.858;4.472;2024-02-16T09:52:51;11.93;;;4.88;;
23714;SDS011;12036;50.858;4.472;2024-02-16T09:55:19;15.48;;;5.50;;
23714;SDS011;12036;50.858;4.472;2024-02-16T09:57:45;12.25;;;5.18;;
23714;SDS011;12036;50.858;4.472;2024-02-16T10:00:12;11.25;;;5.05;;
23714;SDS011;12036;50.858;4.472;2024-02-16T10:02:47;10.38;;;5.30;;
23714;SDS011;12036;50.858;4.472;2024-02-16T10:05:14;12.07;;;5.10;;
23714;SDS011;12036;50.858;4.472;2024-02-16T10:07:41;10.63;;;5.22;;
23714;SDS011;12036;50.858;4.472;2024-02-16T10:10:28;14.90;;;5.38;;
23714;SDS011;12036;50.858;4.472;2024-02-16T10:13:02;12.82;;;5.55;;
23714;SDS011;12036;50.858;4.472;2024-02-16T10:15:29;11.63;;;5.13;;
23714;SDS011;12036;50.858;4.472;2024-02-16T10:18:01;15.48;;;5.97;;
23714;SDS011;12036;50.858;4.472;2024-02-16T10:20:28;16.75;;;5.63;;
23714;SDS011;12036;50.858;4.472;2024-02-16T10:23:07;11.77;;;5.05;;
23714;SDS011;12036;50.858;4.472;2024-02-16T10:25:34;11.05;;;4.85;;
23714;SDS011;12036;50.858;4.472;2024-02-16T10:28:03;11.77;;;5.78;;
23714;SDS011;12036;50.858;4.472;2024-02-16T10:30:41;13.40;;;5.10;;
23714;SDS011;12036;50.858;4.472;2024-02-16T10:33:10;11.77;;;5.40;;
23714;SDS011;12036;50.858;4.472;2024-02-16T10:35:39;11.98;;;5.22;;
23714;SDS011;12036;50.858;4.472;2024-02-16T10:38:06;12.98;;;5.65;;
23714;SDS011;12036;50.858;4.472;2024-02-16T10:40:41;12.93;;;5.13;;
23714;SDS011;12036;50.858;4.472;2024-02-16T10:43:08;12.85;;;5.72;;
23714;SDS011;12036;50.858;4.472;2024-02-16T10:45:36;9.38;;;4.82;;
23714;SDS011;12036;50.858;4.472;2024-02-16T10:48:02;13.05;;;5.45;;
23714;SDS011;12036;50.858;4.472;2024-02-16T10:50:33;13.05;;;5.40;;
23714;SDS011;12036;50.858;4.472;2024-02-16T10:53:10;16.15;;;5.70;;
23714;SDS011;12036;50.858;4.472;2024-02-16T10:55:40;14.85;;;5.40;;
23714;SDS011;12036;50.858;4.472;2024-02-16T10:58:08;13.85;;;5.43;;
23714;SDS011;12036;50.858;4.472;2024-02-16T11:00:48;16.50;;;6.57;;
23714;SDS011;12036;50.858;4.472;2024-02-16T11:03:16;8.10;;;5.35;;
23714;SDS011;12036;50.858;4.472;2024-02-16T11:05:42;12.48;;;6.22;;
23714;SDS011;12036;50.858;4.472;2024-02-16T11:08:15;17.25;;;6.75;;
23714;SDS011;12036;50.858;4.472;2024-02-16T11:10:41;18.25;;;7.18;;
23714;SDS011;12036;50.858;4.472;2024-02-16T11:13:23;14.60;;;6.68;;
23714;SDS011;12036;50.858;4.472;2024-02-16T11:16:02;15.27;;;6.57;;
23714;SDS011;12036;50.858;4.472;2024-02-16T11:18:32;14.13;;;6.60;;
23714;SDS011;12036;50.858;4.472;2024-02-16T11:21:02;11.25;;;5.85;;
23714;SDS011;12036;50.858;4.472;2024-02-16T11:23:30;13.45;;;7.00;;
23714;SDS011;12036;50.858;4.472;2024-02-16T11:26:03;15.18;;;6.55;;
23714;SDS011;12036;50.858;4.472;2024-02-16T11:28:33;13.38;;;6.78;;
23714;SDS011;12036;50.858;4.472;2024-02-16T11:31:00;13.80;;;6.85;;
23714;SDS011;12036;50.858;4.472;2024-02-16T11:33:27;19.58;;;8.13;;
23714;SDS011;12036;50.858;4.472;2024-02-16T11:35:57;16.90;;;7.25;;
23714;SDS011;12036;50.858;4.472;2024-02-16T11:38:25;15.23;;;7.75;;
23714;SDS011;12036;50.858;4.472;2024-02-16T11:40:54;14.95;;;7.45;;
23714;SDS011;12036;50.858;4.472;2024-02-16T11:43:31;16.05;;;7.63;;
23714;SDS011;12036;50.858;4.472;2024-02-16T11:45:57;11.63;;;7.35;;
23714;SDS011;12036;50.858;4.472;2024-02-16T11:48:24;17.05;;;7.43;;
23714;SDS011;12036;50.858;4.472;2024-02-16T11:51:14;19.88;;;8.10;;
23714;SDS011;12036;50.858;4.472;2024-02-16T11:53:39;15.40;;;7.95;;
23714;SDS011;12036;50.858;4.472;2024-02-16T11:56:06;14.43;;;7.43;;
23714;SDS011;12036;50.858;4.472;2024-02-16T11:58:31;14.35;;;7.95;;
23714;SDS011;12036;50.858;4.472;2024-02-16T12:00:57;13.77;;;7.43;;
23714;SDS011;12036;50.858;4.472;2024-02-16T12:03:25;17.80;;;7.63;;
23714;SDS011;12036;50.858;4.472;2024-02-16T12:05:53;9.35;;;6.63;;
23714;SDS011;12036;50.858;4.472;2024-02-16T12:08:23;12.52;;;6.88;;
23714;SDS011;12036;50.858;4.472;2024-02-16T12:10:49;13.50;;;7.20;;
23714;SDS011;12036;50.858;4.472;2024-02-16T12:13:16;15.68;;;7.30;;
23714;SDS011;12036;50.858;4.472;2024-02-16T12:15:46;10.07;;;6.38;;
23714;SDS011;12036;50.858;4.472;2024-02-16T12:18:26;12.50;;;6.60;;
23714;SDS011;12036;50.858;4.472;2024-02-16T12:20:59;9.27;;;6.57;;
23714;SDS011;12036;50.858;4.472;2024-02-16T12:23:29;11.68;;;6.25;;
23714;SDS011;12036;50.858;4.472;2024-02-16T12:25:56;7.43;;;5.35;;
23714;SDS011;12036;50.858;4.472;2024-02-16T12:28:25;9.75;;;5.75;;
23714;SDS011;12036;50.858;4.472;2024-02-16T12:30:53;11.80;;;5.80;;
23714;SDS011;12036;50.858;4.472;2024-02-16T12:33:19;10.98;;;5.35;;
23714;SDS011;12036;50.858;4.472;2024-02-16T12:35:46;11.02;;;5.72;;
23714;SDS011;12036;50.858;4.472;2024-02-16T12:38:11;6.93;;;4.88;;
23714;SDS011;12036;50.858;4.472;2024-02-16T12:40:37;6.57;;;4.90;;
23714;SDS011;12036;50.858;4.472;2024-02-16T12:43:03;6.15;;;4.50;;
23714;SDS011;12036;50.858;4.472;2024-02-16T12:45:29;7.38;;;4.80;;
23714;SDS011;12036;50.858;4.472;2024-02-16T12:47:56;10.80;;;5.70;;
23714;SDS011;12036;50.858;4.472;2024-02-16T12:50:22;5.60;;;4.45;;
23714;SDS011;12036;50.858;4.472;2024-02-16T12:52:48;11.63;;;5.03;;
23714;SDS011;12036;50.858;4.472;2024-02-16T12:55:13;7.55;;;5.05;;
23714;SDS011;12036;50.858;4.472;2024-02-16T12:57:41;7.50;;;5.10;;
23714;SDS011;12036;50.858;4.472;2024-02-16T13:00:06;9.10;;;5.35;;
23714;SDS011;12036;50.858;4.472;2024-02-16T13:02:33;6.32;;;5.38;;
23714;SDS011;12036;50.858;4.472;2024-02-16T13:04:59;8.57;;;5.90;;
23714;SDS011;12036;50.858;4.472;2024-02-16T13:07:25;7.00;;;5.75;;
23714;SDS011;12036;50.858;4.472;2024-02-16T13:09:50;8.65;;;6.22;;
23714;SDS011;12036;50.858;4.472;2024-02-16T13:12:16;9.68;;;6.85;;
23714;SDS011;12036;50.858;4.472;2024-02-16T13:14:44;10.30;;;6.82;;
23714;SDS011;12036;50.858;4.472;2024-02-16T13:17:10;8.70;;;6.45;;
23714;SDS011;12036;50.858;4.472;2024-02-16T13:19:36;9.60;;;6.70;;
23714;SDS011;12036;50.858;4.472;2024-02-16T13:22:01;9.13;;;6.82;;
23714;SDS011;12036;50.858;4.472;2024-02-16T13:24:27;10.98;;;7.28;;
23714;SDS011;12036;50.858;4.472;2024-02-16T13:26:52;8.40;;;6.95;;
23714;SDS011;12036;50.858;4.472;2024-02-16T13:29:18;8.88;;;6.13;;
23714;SDS011;12036;50.858;4.472;2024-02-16T13:31:44;12.05;;;7.50;;
23714;SDS011;12036;50.858;4.472;2024-02-16T13:34:10;9.95;;;7.28;;
23714;SDS011;12036;50.858;4.472;2024-02-16T13:36:36;12.32;;;7.65;;
23714;SDS011;12036;50.858;4.472;2024-02-16T13:39:01;10.50;;;7.68;;
23714;SDS011;12036;50.858;4.472;2024-02-16T13:41:27;13.93;;;8.23;;
23714;SDS011;12036;50.858;4.472;2024-02-16T13:43:53;13.73;;;7.97;;
23714;SDS011;12036;50.858;4.472;2024-02-16T13:46:18;12.63;;;9.00;;
23714;SDS011;12036;50.858;4.472;2024-02-16T13:48:44;13.75;;;9.20;;
23714;SDS011;12036;50.858;4.472;2024-02-16T13:51:10;11.98;;;9.77;;
23714;SDS011;12036;50.858;4.472;2024-02-16T13:53:36;15.02;;;11.38;;
23714;SDS011;12036;50.858;4.472;2024-02-16T13:56:01;17.80;;;11.65;;
23714;SDS011;12036;50.858;4.472;2024-02-16T13:58:29;16.52;;;12.38;;
23714;SDS011;12036;50.858;4.472;2024-02-16T14:00:55;15.52;;;11.50;;
23714;SDS011;12036;50.858;4.472;2024-02-16T14:03:24;15.40;;;11.85;;
23714;SDS011;12036;50.858;4.472;2024-02-16T14:05:50;18.17;;;12.57;;
23714;SDS011;12036;50.858;4.472;2024-02-16T14:08:17;20.42;;;14.43;;
23714;SDS011;12036;50.858;4.472;2024-02-16T14:10:42;19.58;;;14.45;;
23714;SDS011;12036;50.858;4.472;2024-02-16T14:13:08;16.90;;;12.88;;
23714;SDS011;12036;50.858;4.472;2024-02-16T14:15:34;17.73;;;12.48;;
23714;SDS011;12036;50.858;4.472;2024-02-16T14:18:00;16.63;;;11.50;;
23714;SDS011;12036;50.858;4.472;2024-02-16T14:20:25;13.63;;;10.23;;
23714;SDS011;12036;50.858;4.472;2024-02-16T14:22:51;12.90;;;10.43;;
23714;SDS011;12036;50.858;4.472;2024-02-16T14:25:17;9.82;;;8.57;;
23714;SDS011;12036;50.858;4.472;2024-02-16T14:27:44;10.77;;;9.05;;
23714;SDS011;12036;50.858;4.472;2024-02-16T14:30:12;10.70;;;7.18;;
23714;SDS011;12036;50.858;4.472;2024-02-16T14:32:38;7.30;;;6.47;;
23714;SDS011;12036;50.858;4.472;2024-02-16T14:35:04;6.50;;;5.43;;
23714;SDS011;12036;50.858;4.472;2024-02-16T14:37:32;6.72;;;5.63;;
23714;SDS011;12036;50.858;4.472;2024-02-16T14:39:58;6.55;;;4.95;;